Time;durP1;ratioP1;P1;durP2;ratioP2;P2;SDS_P1;SDS_P2;PMS_P1;PMS_P2;Temp;Humidity;BMP_temperature;BMP_pressure;BME280_temperature;BME280_humidity;BME280_pressure;Samples;Min_cycle;Max_cycle;Signal;HPM_P1;HPM_P2
2021/08/11 00:01:35;;;;;;;;;0.00;0.00;;;;;20.58;64.37;101530.09;6086987;23;49604;-79
2021/08/11 00:04:01;;;;;;;;;0.00;0.00;;;;;20.57;64.01;101521.25;6087443;23;45304;-79
2021/08/11 00:06:26;;;;;;;;;0.00;0.00;;;;;20.50;63.96;101515.25;6087194;23;47137;-80
2021/08/11 00:08:51;;;;;;;;;0.00;0.00;;;;;20.59;63.74;101535.34;6086346;23;45938;-80
2021/08/11 00:11:17;;;;;;;;;0.00;0.00;;;;;20.56;64.25;101535.41;6086510;23;48924;-80
2021/08/11 00:13:43;;;;;;;;;0.00;0.00;;;;;20.57;64.07;101544.19;6087028;23;45415;-80
2021/08/11 00:16:09;;;;;;;;;0.00;0.00;;;;;20.47;63.78;101536.47;6085924;23;45355;-79
2021/08/11 00:18:34;;;;;;;;;0.00;0.00;;;;;20.51;64.31;101546.06;6086959;23;46175;-77
2021/08/11 00:21:00;;;;;;;;;0.00;0.00;;;;;20.55;64.47;101549.50;6087137;23;45357;-79
2021/08/11 00:23:25;;;;;;;;;0.00;0.00;;;;;20.46;64.42;101552.34;6087212;23;45844;-80
2021/08/11 00:25:55;;;;;;;;;0.00;0.00;;;;;20.29;64.67;101536.81;6087852;23;45281;-79
2021/08/11 00:28:21;;;;;;;;;0.00;0.00;;;;;20.22;65.00;101554.56;6087290;23;45619;-79
2021/08/11 00:30:47;;;;;;;;;0.00;0.00;;;;;20.15;65.23;101555.59;6086843;23;45483;-79
2021/08/11 00:33:12;;;;;;;;;0.00;0.00;;;;;20.05;65.40;101542.53;6087248;23;45669;-79
2021/08/11 00:35:38;;;;;;;;;0.00;0.00;;;;;20.11;65.52;101557.41;6087340;23;45425;-79
2021/08/11 00:38:03;;;;;;;;;0.00;0.00;;;;;20.19;65.10;101558.16;6086103;23;51324;-80
2021/08/11 00:40:31;;;;;;;;;0.00;0.00;;;;;20.10;65.14;101529.25;6086680;23;45376;-80
2021/08/11 00:42:57;;;;;;;;;0.75;0.00;;;;;20.14;65.13;101544.13;6087885;23;45412;-78
2021/08/11 00:45:22;;;;;;;;;0.00;0.00;;;;;20.20;65.01;101559.00;6088884;23;45223;-79
2021/08/11 00:47:51;;;;;;;;;0.00;0.00;;;;;20.20;64.86;101559.00;6088979;23;45225;-80
2021/08/11 00:50:17;;;;;;;;;0.00;0.00;;;;;20.21;65.34;101556.34;6089009;23;45151;-78
2021/08/11 00:52:42;;;;;;;;;0.00;0.00;;;;;20.13;65.81;101560.91;6088617;23;45352;-78
2021/08/11 00:55:08;;;;;;;;;0.00;0.00;;;;;20.05;65.38;101557.50;6089115;23;45277;-78
2021/08/11 00:57:33;;;;;;;;;0.50;0.00;;;;;20.05;65.56;101554.88;6088790;23;45951;-78
2021/08/11 01:00:00;;;;;;;;;0.00;0.00;;;;;20.08;65.40;101561.00;6087832;23;54212;-78
2021/08/11 01:02:26;;;;;;;;;0.00;0.00;;;;;20.17;65.20;101578.44;6089234;23;45404;-78
2021/08/11 01:04:55;;;;;;;;;0.50;0.00;;;;;20.16;65.10;101579.34;6087236;23;45743;-78
2021/08/11 01:07:21;;;;;;;;;0.00;0.00;;;;;20.09;65.31;101561.88;6087991;23;46902;-79
2021/08/11 01:09:47;;;;;;;;;0.00;0.00;;;;;20.18;65.41;101572.25;6088454;23;45367;-78
2021/08/11 01:12:13;;;;;;;;;0.00;0.00;;;;;20.16;65.03;101549.41;6088019;23;45361;-78
2021/08/11 01:14:40;;;;;;;;;0.00;0.00;;;;;20.32;64.81;101568.47;6089440;23;45281;-78
2021/08/11 01:17:05;;;;;;;;;0.00;0.00;;;;;20.36;64.73;101567.50;6088688;23;45349;-78
2021/08/11 01:19:31;;;;;;;;;0.00;0.00;;;;;20.37;64.92;101562.19;6088403;23;53665;-78
2021/08/11 01:22:07;;;;;;;;;0.00;0.00;;;;;20.39;64.89;101556.88;6088388;23;45294;-76
2021/08/11 01:24:48;;;;;;;;;0.00;0.00;;;;;20.41;64.70;101564.78;6089176;23;45349;-79
2021/08/11 01:27:41;;;;;;;;;0.00;0.00;;;;;20.40;64.31;101560.41;6088770;23;45557;-78
2021/08/11 01:30:16;;;;;;;;;0.00;0.00;;;;;20.34;64.46;101554.31;6088430;23;45360;-79
2021/08/11 01:32:59;;;;;;;;;0.00;0.00;;;;;20.33;64.57;101547.31;6088822;23;45166;-79
2021/08/11 01:35:30;;;;;;;;;0.00;0.00;;;;;20.28;63.98;101535.06;6087265;23;45409;-80
2021/08/11 01:37:59;;;;;;;;;0.00;0.00;;;;;20.35;63.12;101547.28;6088082;23;46962;-79
2021/08/11 01:40:34;;;;;;;;;0.00;0.00;;;;;20.38;63.26;101544.56;6089094;23;45185;-77
2021/08/11 01:43:03;;;;;;;;;0.00;0.00;;;;;20.26;63.06;101532.47;6088966;23;45218;-79
2021/08/11 01:45:33;;;;;;;;;0.00;0.00;;;;;20.41;63.37;101556.84;6088964;23;45361;-79
2021/08/11 01:48:05;;;;;;;;;0.00;0.00;;;;;20.31;63.72;101535.03;6088593;23;46423;-80
2021/08/11 01:50:36;;;;;;;;;0.00;0.00;;;;;20.41;63.59;101541.88;6087865;23;45527;-78
2021/08/11 01:53:02;;;;;;;;;0.00;0.00;;;;;20.41;63.34;101541.88;6088109;23;45298;-78
2021/08/11 01:55:27;;;;;;;;;0.00;0.00;;;;;20.40;62.60;101541.91;6088530;23;45390;-79
2021/08/11 01:57:54;;;;;;;;;0.00;0.00;;;;;20.33;63.13;101528.78;6088096;23;48108;-79
2021/08/11 02:00:22;;;;;;;;;0.00;0.00;;;;;20.33;62.89;101535.84;6088428;23;45340;-78
2021/08/11 02:02:50;;;;;;;;;0.00;0.00;;;;;20.13;62.88;101508.91;6088822;23;45365;-79
2021/08/11 02:05:18;;;;;;;;;0.00;0.00;;;;;20.24;62.90;101531.59;6088618;23;45662;-78
2021/08/11 02:07:44;;;;;;;;;0.00;0.00;;;;;20.16;63.54;101515.91;6088584;23;45377;-78
2021/08/11 02:10:12;;;;;;;;;0.00;0.00;;;;;20.23;63.47;101522.81;6088759;23;45412;-80
2021/08/11 02:12:38;;;;;;;;;0.00;0.00;;;;;20.22;63.09;101521.06;6088234;23;45292;-79
2021/08/11 02:15:08;;;;;;;;;0.00;0.00;;;;;20.31;63.10;101527.09;6088923;23;45314;-78
2021/08/11 02:17:36;;;;;;;;;0.00;0.00;;;;;20.32;63.15;101527.06;6088000;23;46778;-78
2021/08/11 02:20:02;;;;;;;;;0.00;0.00;;;;;20.13;63.21;101495.69;6087958;23;45313;-78
2021/08/11 02:22:28;;;;;;;;;0.00;0.00;;;;;20.24;63.43;101524.56;6088723;23;45299;-78
2021/08/11 02:24:54;;;;;;;;;0.00;0.00;;;;;20.18;63.34;101513.25;6089962;23;51348;-78
2021/08/11 02:27:27;;;;;;;;;0.00;0.00;;;;;20.27;63.51;101525.41;6090286;23;46068;-79
2021/08/11 02:30:09;;;;;;;;;0.00;0.00;;;;;20.25;63.62;101528.94;6089870;23;45234;-78
2021/08/11 02:32:41;;;;;;;;;0.00;0.00;;;;;20.22;63.65;101522.84;6090611;23;45385;-79
2021/08/11 02:35:18;;;;;;;;;0.00;0.00;;;;;20.19;63.52;101521.16;6089939;23;45505;-78
2021/08/11 02:38:02;;;;;;;;;0.00;0.00;;;;;20.17;63.87;101516.78;6089960;23;46277;-78
2021/08/11 02:40:44;;;;;;;;;0.00;0.00;;;;;20.09;63.91;101507.22;6089828;23;45318;-79
2021/08/11 02:43:23;;;;;;;;;0.00;0.00;;;;;20.14;64.01;101525.63;6090655;23;45174;-79
2021/08/11 02:46:01;;;;;;;;;0.00;0.00;;;;;20.08;64.22;101513.41;6090167;23;45622;-79
2021/08/11 02:48:29;;;;;;;;;0.00;0.00;;;;;20.02;63.91;101515.28;6089573;23;45608;-79
2021/08/11 02:50:56;;;;;;;;;0.00;0.00;;;;;20.00;64.16;101512.66;6090110;23;45231;-79
2021/08/11 02:53:24;;;;;;;;;0.00;0.00;;;;;20.03;64.49;101517.06;6090143;23;45201;-79
2021/08/11 02:55:51;;;;;;;;;0.00;0.00;;;;;20.06;64.20;101524.94;6090448;23;45409;-78
2021/08/11 02:58:18;;;;;;;;;0.00;0.00;;;;;19.79;64.14;101474.28;6089546;23;46715;-78
2021/08/11 03:00:46;;;;;;;;;0.25;0.00;;;;;20.03;64.34;101517.91;6089636;23;45180;-78
2021/08/11 03:03:12;;;;;;;;;0.00;0.00;;;;;20.00;64.52;101524.13;6089610;23;45239;-79
2021/08/11 03:05:38;;;;;;;;;1.00;0.00;;;;;20.03;64.37;101524.97;6090339;23;45352;-80
2021/08/11 03:08:04;;;;;;;;;0.00;0.00;;;;;19.94;64.61;101510.97;6089764;23;45401;-79
2021/08/11 03:10:30;;;;;;;;;0.00;0.00;;;;;20.03;64.46;101524.97;6090134;23;45349;-78
2021/08/11 03:12:56;;;;;;;;;0.00;0.00;;;;;20.03;64.74;101517.06;6089663;23;45414;-78
2021/08/11 03:15:22;;;;;;;;;0.00;0.00;;;;;20.00;64.56;101516.19;6089782;23;45481;-77
2021/08/11 03:17:48;;;;;;;;;0.00;0.00;;;;;19.90;64.63;101506.66;6089328;23;45371;-79
2021/08/11 03:20:13;;;;;;;;;0.00;0.00;;;;;20.02;64.81;101531.13;6087642;23;46172;-79
2021/08/11 03:22:38;;;;;;;;;0.00;0.00;;;;;20.05;64.61;101518.75;6089875;23;45263;-79
2021/08/11 03:25:05;;;;;;;;;0.00;0.00;;;;;20.07;64.50;101522.25;6090533;23;45409;-78
2021/08/11 03:27:31;;;;;;;;;0.00;0.00;;;;;19.97;64.77;101504.78;6089274;23;47658;-78
2021/08/11 03:29:56;;;;;;;;;0.00;0.00;;;;;19.99;64.77;101534.69;6089107;23;45444;-78
2021/08/11 03:32:21;;;;;;;;;0.75;0.00;;;;;19.96;64.83;101532.97;6089098;23;45251;-77
2021/08/11 03:34:47;;;;;;;;;0.00;0.00;;;;;19.82;64.62;101516.50;6089662;23;45582;-78
2021/08/11 03:37:16;;;;;;;;;0.00;0.00;;;;;19.95;65.00;101538.28;6089023;23;51797;-78
2021/08/11 03:39:41;;;;;;;;;0.00;0.00;;;;;19.96;64.88;101543.53;6089238;23;45317;-79
2021/08/11 03:42:07;;;;;;;;;0.00;0.00;;;;;19.86;65.10;101536.69;6089444;23;45815;-78
2021/08/11 03:44:32;;;;;;;;;0.00;0.00;;;;;19.88;65.17;101546.31;6088234;23;45312;-78
2021/08/11 03:46:58;;;;;;;;;1.00;0.00;;;;;19.97;65.01;101555.00;6088961;23;45266;-78
2021/08/11 03:49:23;;;;;;;;;0.00;0.00;;;;;19.92;65.03;101559.47;6089175;23;45287;-78
2021/08/11 03:51:48;;;;;;;;;0.00;0.00;;;;;19.84;65.38;101551.69;6089040;23;45359;-78
2021/08/11 03:54:14;;;;;;;;;0.00;0.00;;;;;19.68;65.70;101519.38;6089089;23;45195;-79
2021/08/11 03:56:39;;;;;;;;;0.00;0.00;;;;;19.83;65.54;101547.31;6089184;23;45974;-78
2021/08/11 03:59:05;;;;;;;;;0.00;0.00;;;;;19.86;65.59;101548.13;6089619;23;45210;-77
2021/08/11 04:01:30;;;;;;;;;0.00;0.00;;;;;19.84;65.54;101536.72;6089088;23;45286;-78
2021/08/11 04:03:56;;;;;;;;;0.00;0.00;;;;;19.98;65.63;101554.09;6089170;23;45411;-77
2021/08/11 04:06:21;;;;;;;;;0.00;0.00;;;;;19.98;65.64;101552.34;6089161;23;45838;-78
2021/08/11 04:08:46;;;;;;;;;0.00;0.00;;;;;19.94;65.37;101555.91;6088701;23;45348;-78
2021/08/11 04:11:11;;;;;;;;;0.00;0.00;;;;;19.88;65.81;101541.03;6087419;23;45475;-78
2021/08/11 04:13:37;;;;;;;;;0.00;0.00;;;;;19.93;65.92;101548.00;6089055;23;45461;-79
2021/08/11 04:16:02;;;;;;;;;0.00;0.00;;;;;19.66;65.77;101505.34;6088809;23;46233;-79
2021/08/11 04:18:28;;;;;;;;;0.00;0.00;;;;;19.94;65.90;101544.47;6088363;23;45349;-78
2021/08/11 04:20:53;;;;;;;;;0.00;0.00;;;;;19.93;65.81;101562.09;6088738;23;45277;-77
2021/08/11 04:23:18;;;;;;;;;0.00;0.00;;;;;19.93;66.01;101556.81;6088642;23;45258;-77
2021/08/11 04:25:44;;;;;;;;;0.00;0.00;;;;;19.92;65.69;101565.66;6088510;23;45894;-77
2021/08/11 04:28:10;;;;;;;;;0.00;0.00;;;;;19.75;65.85;101535.09;6087153;23;50087;-76
2021/08/11 04:30:36;;;;;;;;;0.00;0.00;;;;;19.74;65.91;101558.91;6088474;23;45352;-77
2021/08/11 04:33:01;;;;;;;;;0.00;0.00;;;;;19.67;65.98;101571.34;6089333;23;45337;-77
2021/08/11 04:35:27;;;;;;;;;0.00;0.00;;;;;19.47;66.13;101553.16;6088326;23;45853;-78
2021/08/11 04:37:52;;;;;;;;;0.00;0.00;;;;;19.58;66.47;101571.50;6088260;23;45252;-76
2021/08/11 04:40:17;;;;;;;;;0.00;0.00;;;;;19.39;66.49;101542.75;6088618;23;45330;-77
2021/08/11 04:42:43;;;;;;;;;0.00;0.00;;;;;19.52;66.68;101575.09;6089078;23;45289;-77
2021/08/11 04:45:09;;;;;;;;;0.00;0.00;;;;;19.39;67.18;101576.19;6088193;23;46614;-77
2021/08/11 04:47:34;;;;;;;;;0.00;0.00;;;;;19.24;67.84;101573.72;6088615;23;45262;-77
2021/08/11 04:50:00;;;;;;;;;0.75;0.00;;;;;19.23;67.79;101581.66;6088741;23;45341;-78
2021/08/11 04:52:25;;;;;;;;;0.25;0.00;;;;;19.24;67.80;101573.72;6088932;23;45242;-77
2021/08/11 04:54:50;;;;;;;;;0.00;0.00;;;;;19.24;68.13;101579.00;6085898;23;47220;-76
2021/08/11 04:57:16;;;;;;;;;0.00;0.00;;;;;19.31;68.14;101566.63;6088325;23;45258;-77
2021/08/11 04:59:41;;;;;;;;;0.00;0.00;;;;;19.40;68.14;101570.88;6088185;23;45626;-77
2021/08/11 05:02:06;;;;;;;;;0.00;0.00;;;;;19.44;67.81;101569.06;6088240;23;45253;-77
2021/08/11 05:04:32;;;;;;;;;0.00;0.00;;;;;19.50;67.36;101569.84;6088395;23;45286;-77
2021/08/11 05:06:57;;;;;;;;;0.00;0.00;;;;;19.53;67.26;101574.19;6088244;23;45380;-77
2021/08/11 05:09:22;;;;;;;;;0.00;0.00;;;;;19.57;67.46;101577.69;6088115;23;45329;-77
2021/08/11 05:11:48;;;;;;;;;0.00;0.00;;;;;19.55;67.26;101576.81;6087830;23;45442;-77
2021/08/11 05:14:13;;;;;;;;;0.00;0.00;;;;;19.46;67.12;101564.63;6087713;23;46500;-77
2021/08/11 05:16:39;;;;;;;;;0.00;0.00;;;;;19.23;67.29;101524.50;6086321;23;45341;-77
2021/08/11 05:19:04;;;;;;;;;1.00;0.00;;;;;19.58;66.68;101580.28;6086945;23;45317;-78
2021/08/11 05:21:31;;;;;;;;;0.00;0.00;;;;;19.67;66.84;101586.31;6088148;23;45246;-77
2021/08/11 05:23:57;;;;;;;;;0.00;0.00;;;;;19.66;66.54;101580.16;6087331;23;46440;-77
2021/08/11 05:26:22;;;;;;;;;0.00;0.00;;;;;19.72;66.82;101595.91;6087675;23;45222;-77
2021/08/11 05:28:49;;;;;;;;;0.00;0.00;;;;;19.65;66.77;101596.91;6086243;23;45294;-77
2021/08/11 05:31:15;;;;;;;;;0.00;0.00;;;;;19.32;66.76;101549.00;6089032;23;45385;-77
2021/08/11 05:33:40;;;;;;;;;0.00;0.00;;;;;19.61;66.70;101598.69;6088026;23;45309;-78
2021/08/11 05:36:06;;;;;;;;;0.00;0.00;;;;;19.61;66.41;101597.84;6088373;23;45281;-76
2021/08/11 05:38:31;;;;;;;;;0.00;0.00;;;;;19.62;66.83;101599.59;6086263;23;45543;-78
2021/08/11 05:40:57;;;;;;;;;1.00;0.00;;;;;19.61;66.44;101598.69;6088103;23;45415;-76
2021/08/11 05:43:22;;;;;;;;;0.00;0.00;;;;;19.65;66.68;101614.50;6087026;23;46025;-77
2021/08/11 05:45:47;;;;;;;;;0.00;0.00;;;;;19.63;66.59;101585.47;6087444;23;51260;-76
2021/08/11 05:48:13;;;;;;;;;0.00;0.00;;;;;19.70;66.53;101595.06;6088300;23;45314;-77
2021/08/11 05:50:38;;;;;;;;;0.00;0.00;;;;;19.81;66.12;101610.72;6087998;23;45304;-78
2021/08/11 05:53:04;;;;;;;;;0.00;0.00;;;;;19.63;66.26;101615.41;6086030;23;46037;-76
2021/08/11 05:55:29;;;;;;;;;0.00;0.00;;;;;19.54;66.43;101615.53;6087301;23;45388;-77
2021/08/11 05:57:54;;;;;;;;;0.00;0.00;;;;;19.47;66.57;101612.13;6088198;23;45385;-76
2021/08/11 06:00:20;;;;;;;;;0.00;0.00;;;;;19.42;66.65;101623.66;6090396;23;45382;-75
2021/08/11 06:02:45;;;;;;;;;0.00;0.00;;;;;19.48;67.05;101618.31;6089132;23;45787;-76
2021/08/11 06:05:11;;;;;;;;;0.00;0.00;;;;;19.59;66.54;101623.41;6089615;23;45350;-75
2021/08/11 06:07:37;;;;;;;;;0.00;0.00;;;;;19.63;66.65;101623.34;6087592;23;45304;-77
2021/08/11 06:10:04;;;;;;;;;0.00;0.00;;;;;19.62;66.50;101629.53;6090152;23;45311;-75
2021/08/11 06:12:29;;;;;;;;;0.00;0.00;;;;;19.63;66.54;101623.34;6086336;23;47790;-75
2021/08/11 06:14:55;;;;;;;;;0.00;0.00;;;;;19.69;66.25;101619.72;6087165;23;45297;-76
2021/08/11 06:17:20;;;;;;;;;0.00;0.00;;;;;19.78;66.25;101638.97;6089589;23;45443;-75
2021/08/11 06:19:47;;;;;;;;;0.00;0.00;;;;;19.68;66.21;101625.03;6090238;23;45353;-75
2021/08/11 06:22:13;;;;;;;;;0.00;0.00;;;;;19.84;66.18;101636.22;6088823;23;45396;-75
2021/08/11 06:24:38;;;;;;;;;0.00;0.00;;;;;19.77;66.14;101619.59;6087489;23;45369;-76
2021/08/11 06:27:03;;;;;;;;;0.00;0.00;;;;;19.78;65.88;101620.50;6089044;23;45416;-75
2021/08/11 06:29:29;;;;;;;;;0.00;0.00;;;;;20.04;66.20;101645.63;6088175;23;45496;-76
2021/08/11 06:31:54;;;;;;;;;0.00;0.00;;;;;20.08;65.69;101637.63;6086870;23;47335;-75
2021/08/11 06:34:19;;;;;;;;;0.00;0.00;;;;;20.22;65.58;101639.16;6088650;23;45328;-75
2021/08/11 06:36:45;;;;;;;;;0.50;0.00;;;;;20.28;65.52;101643.47;6089237;23;45643;-75
2021/08/11 06:39:10;;;;;;;;;0.00;0.00;;;;;20.34;65.57;101635.44;6088983;23;45358;-74
2021/08/11 06:41:35;;;;;;;;;0.00;0.00;;;;;20.32;65.11;101622.25;6087830;23;46261;-74
2021/08/11 06:44:01;;;;;;;;;0.00;0.00;;;;;20.40;64.73;101629.16;6086447;23;45324;-75
2021/08/11 06:46:26;;;;;;;;;0.00;0.00;;;;;20.57;64.88;101649.97;6087986;23;45304;-76
2021/08/11 06:48:53;;;;;;;;;1.00;0.00;;;;;20.69;64.67;101649.75;6088913;23;45393;-76
2021/08/11 06:51:18;;;;;;;;;0.00;0.00;;;;;20.76;64.36;101632.84;6088792;23;45326;-75
2021/08/11 06:53:44;;;;;;;;;0.00;0.00;;;;;20.89;64.04;101644.09;6088464;23;45295;-76
2021/08/11 06:56:09;;;;;;;;;0.00;0.00;;;;;20.92;64.15;101635.22;6088147;23;45311;-76
2021/08/11 06:58:36;;;;;;;;;0.50;0.00;;;;;21.03;63.36;101642.94;6088738;23;45172;-76
2021/08/11 07:01:02;;;;;;;;;0.00;0.00;;;;;20.99;63.90;101644.78;6089370;23;45265;-75
2021/08/11 07:03:27;;;;;;;;;0.00;0.00;;;;;20.93;63.67;101638.72;6087898;23;45317;-76
2021/08/11 07:05:53;;;;;;;;;0.00;0.00;;;;;21.01;63.71;101640.31;6089056;23;45286;-75
2021/08/11 07:08:20;;;;;;;;;0.00;0.00;;;;;20.98;63.41;101637.72;6086624;23;45453;-75
2021/08/11 07:10:45;;;;;;;;;0.00;0.00;;;;;20.85;63.35;101620.34;6087891;23;45949;-77
2021/08/11 07:13:11;;;;;;;;;0.00;0.00;;;;;20.86;63.71;101622.09;6087879;23;45482;-76
2021/08/11 07:15:36;;;;;;;;;0.00;0.00;;;;;20.88;63.59;101628.22;6086002;23;45423;-75
2021/08/11 07:18:01;;;;;;;;;0.00;0.00;;;;;20.96;63.24;101642.22;6086703;23;45538;-75
2021/08/11 07:20:31;;;;;;;;;0.00;0.00;;;;;20.93;63.15;101639.63;6088532;23;46366;-75
2021/08/11 07:22:58;;;;;;;;;0.00;0.00;;;;;20.85;63.21;101649.44;6088650;23;45348;-75
2021/08/11 07:25:24;;;;;;;;;0.00;0.00;;;;;20.80;63.59;101659.25;6087880;23;45374;-75
2021/08/11 07:27:50;;;;;;;;;0.00;0.00;;;;;20.73;63.08;101642.63;6088815;23;45320;-76
2021/08/11 07:30:16;;;;;;;;;0.00;0.00;;;;;20.80;63.35;101667.19;6088967;23;45518;-77
2021/08/11 07:32:43;;;;;;;;;0.25;0.00;;;;;20.79;63.25;101662.81;6088552;23;45317;-77
2021/08/11 07:35:11;;;;;;;;;0.00;0.00;;;;;20.80;63.14;101656.59;6088365;23;45314;-79
2021/08/11 07:37:53;;;;;;;;;0.00;0.00;;;;;21.05;62.67;101666.72;6088611;23;45332;-80
2021/08/11 07:40:21;;;;;;;;;0.00;0.00;;;;;21.07;62.73;101659.63;6087657;23;46306;-79
2021/08/11 07:42:46;;;;;;;;;0.00;0.00;;;;;21.03;62.90;101661.47;6088001;23;45371;-77
2021/08/11 07:45:14;;;;;;;;;0.75;0.00;;;;;20.99;63.25;101667.72;6088896;23;45356;-78
2021/08/11 07:47:40;;;;;;;;;0.00;0.00;;;;;20.87;63.08;101668.81;6088164;23;45368;-78
2021/08/11 07:50:06;;;;;;;;;0.75;0.75;;;;;20.70;63.00;101648.84;6087094;23;45340;-79
2021/08/11 07:52:32;;;;;;;;;0.00;0.00;;;;;20.65;63.17;101642.78;6085951;23;45327;-79
2021/08/11 07:54:57;;;;;;;;;0.25;0.00;;;;;20.72;63.19;101652.34;6086995;23;45358;-79
2021/08/11 07:57:23;;;;;;;;;0.00;0.00;;;;;20.75;63.52;101667.28;6087381;23;45443;-80
2021/08/11 07:59:48;;;;;;;;;0.00;0.00;;;;;20.72;63.56;101657.63;6086763;23;46416;-76
2021/08/11 08:02:13;;;;;;;;;0.00;0.00;;;;;20.71;63.48;101655.91;6087515;23;45336;-77
2021/08/11 08:04:41;;;;;;;;;0.00;0.00;;;;;20.74;63.11;101654.97;6087680;23;45588;-78
2021/08/11 08:07:06;;;;;;;;;0.50;0.00;;;;;20.61;63.17;101626.09;6089086;23;45154;-79
2021/08/11 08:09:32;;;;;;;;;0.00;0.00;;;;;20.79;63.34;101634.56;6068904;23;47023;-79
2021/08/11 08:11:57;;;;;;;;;0.00;0.00;;;;;20.84;62.55;101623.88;6080269;23;45369;-82
2021/08/11 08:14:23;;;;;;;;;0.75;0.00;;;;;21.07;61.64;101638.47;6083657;23;45295;-75
2021/08/11 08:16:48;;;;;;;;;0.00;0.00;;;;;20.86;61.88;101612.34;6087077;23;45285;-79
2021/08/11 08:19:14;;;;;;;;;0.00;0.00;;;;;21.01;61.55;101628.88;6087108;23;45448;-80
2021/08/11 08:21:39;;;;;;;;;0.00;0.00;;;;;21.02;61.22;101628.81;6084952;23;52555;-78
2021/08/11 08:24:04;;;;;;;;;0.50;0.00;;;;;21.11;60.71;101645.44;6086597;23;45385;-74
2021/08/11 08:26:30;;;;;;;;;0.00;0.00;;;;;21.28;60.35;101637.09;6087212;23;45846;-75
2021/08/11 08:28:55;;;;;;;;;0.00;0.00;;;;;21.46;60.10;101645.53;6086273;23;46129;-76
2021/08/11 08:31:20;;;;;;;;;0.00;0.00;;;;;21.65;59.07;101640.69;6086861;23;45309;-75
2021/08/11 08:33:46;;;;;;;;;0.00;0.00;;;;;21.67;58.90;101646.81;6085320;23;45416;-76
2021/08/11 08:36:11;;;;;;;;;0.00;0.00;;;;;21.65;57.77;101645.97;6086537;23;45297;-76
2021/08/11 08:38:37;;;;;;;;;0.00;0.00;;;;;21.59;57.18;101646.16;6086381;23;46026;-77
2021/08/11 08:41:02;;;;;;;;;0.00;0.00;;;;;21.71;56.54;101651.13;6087375;23;45368;-77
2021/08/11 08:43:28;;;;;;;;;0.00;0.00;;;;;21.56;56.63;101649.72;6086842;23;45377;-75
2021/08/11 08:45:54;;;;;;;;;0.00;0.00;;;;;21.48;56.28;101649.03;6087063;23;45305;-78
2021/08/11 08:48:19;;;;;;;;;0.00;0.00;;;;;21.57;55.68;101646.19;6085038;23;46042;-75
2021/08/11 08:50:48;;;;;;;;;0.00;0.00;;;;;21.73;56.44;101653.75;6084691;23;45359;-74
2021/08/11 08:53:19;;;;;;;;;0.00;0.00;;;;;21.71;55.38;101659.09;6086826;23;45484;-76
2021/08/11 08:55:46;;;;;;;;;0.00;0.00;;;;;21.80;55.47;101654.53;6086857;23;45238;-76
2021/08/11 08:58:11;;;;;;;;;0.00;0.00;;;;;21.81;54.86;101640.34;6086089;23;46199;-76
2021/08/11 09:00:37;;;;;;;;;0.00;0.00;;;;;21.80;55.00;101639.47;6085433;23;45300;-77
2021/08/11 09:03:04;;;;;;;;;0.00;0.00;;;;;21.88;55.22;101656.09;6086931;23;45425;-76
2021/08/11 09:05:29;;;;;;;;;0.00;0.00;;;;;21.75;55.37;101657.28;6084062;23;45456;-76
2021/08/11 09:07:54;;;;;;;;;0.00;0.00;;;;;21.79;55.57;101655.41;6086354;23;45304;-76
2021/08/11 09:10:27;;;;;;;;;0.00;0.00;;;;;21.70;55.77;101659.13;6086119;23;45328;-75
2021/08/11 09:12:57;;;;;;;;;0.00;0.00;;;;;21.79;56.24;101655.41;6086512;23;45380;-75
2021/08/11 09:15:37;;;;;;;;;0.00;0.00;;;;;22.00;55.91;101644.31;6086764;23;45256;-77
2021/08/11 09:18:13;;;;;;;;;0.00;0.00;;;;;22.20;55.65;101645.56;6085459;23;45474;-78
2021/08/11 09:20:39;;;;;;;;;0.00;0.00;;;;;22.27;56.00;101638.31;6085893;23;45405;-77
2021/08/11 09:23:05;;;;;;;;;0.00;0.00;;;;;22.31;55.11;101621.41;6085887;23;45418;-75
2021/08/11 09:25:31;;;;;;;;;0.00;0.00;;;;;22.43;55.31;101636.13;6083810;23;45296;-76
2021/08/11 09:27:56;;;;;;;;;0.00;0.00;;;;;22.49;55.86;101643.03;6085635;23;45396;-75
2021/08/11 09:30:23;;;;;;;;;0.00;0.00;;;;;22.71;55.29;101638.03;6085931;23;45532;-75
2021/08/11 09:32:55;;;;;;;;;0.00;0.00;;;;;23.00;54.96;101646.09;6088091;23;45319;-75
2021/08/11 09:35:21;;;;;;;;;0.00;0.00;;;;;23.25;54.22;101635.56;6088278;23;45255;-76
2021/08/11 09:37:48;;;;;;;;;0.00;0.00;;;;;23.18;53.63;101611.94;6087004;23;47381;-76
2021/08/11 09:40:19;;;;;;;;;0.00;0.00;;;;;23.35;54.15;101641.50;6086977;23;45661;-77
2021/08/11 09:42:45;;;;;;;;;1.25;0.00;;;;;23.34;53.24;101636.22;6086667;23;45742;-80
2021/08/11 09:45:12;;;;;;;;;0.00;0.00;;;;;23.35;53.66;101619.34;6087661;23;45841;-77
2021/08/11 09:47:38;;;;;;;;;0.00;0.00;;;;;23.54;53.39;101639.16;6087804;23;46183;-77
2021/08/11 09:50:07;;;;;;;;;0.00;0.00;;;;;23.70;53.16;101645.75;6085968;23;45376;-77
2021/08/11 09:52:50;;;;;;;;;0.00;0.00;;;;;23.79;52.85;101641.00;6087017;23;45374;-77
2021/08/11 09:55:16;;;;;;;;;0.00;0.00;;;;;23.86;52.72;101639.00;6088628;23;45242;-77
2021/08/11 09:57:42;;;;;;;;;0.00;0.00;;;;;23.91;53.09;101642.38;6086936;23;45378;-78
2021/08/11 10:00:13;;;;;;;;;1.00;1.00;;;;;24.10;52.92;101640.91;6086678;23;45461;-77
2021/08/11 10:02:38;;;;;;;;;1.00;0.00;;;;;23.96;51.92;101642.25;6087066;23;45305;-77
2021/08/11 10:05:04;;;;;;;;;0.00;0.00;;;;;23.73;51.83;101640.34;6088118;23;45238;-75
2021/08/11 10:07:29;;;;;;;;;0.00;0.00;;;;;23.58;52.01;101631.09;6086244;23;45608;-76
2021/08/11 10:10:04;;;;;;;;;0.00;0.00;;;;;23.53;52.51;101609.97;6087218;23;45250;-75
2021/08/11 10:12:32;;;;;;;;;0.00;0.00;;;;;23.71;52.69;101635.09;6087828;23;45388;-77
2021/08/11 10:14:59;;;;;;;;;0.00;0.00;;;;;23.63;52.21;101613.19;6088859;23;45498;-78
2021/08/11 10:17:34;;;;;;;;;0.00;0.00;;;;;23.48;52.76;101626.06;6088539;23;45613;-78
2021/08/11 10:20:03;;;;;;;;;0.00;0.00;;;;;23.47;52.75;101632.28;6088646;23;45479;-77
2021/08/11 10:22:29;;;;;;;;;0.00;0.00;;;;;23.40;53.19;101628.09;6087316;23;45455;-76
2021/08/11 10:24:55;;;;;;;;;0.75;0.75;;;;;23.40;52.90;101636.06;6088448;23;45258;-77
2021/08/11 10:27:21;;;;;;;;;0.00;0.00;;;;;23.49;53.21;101633.09;6089117;23;52051;-78
2021/08/11 10:29:48;;;;;;;;;0.00;0.00;;;;;23.62;52.63;101622.97;6087710;23;45288;-78
2021/08/11 10:32:13;;;;;;;;;1.00;0.00;;;;;23.88;52.19;101623.00;6087826;23;45419;-78
2021/08/11 10:34:40;;;;;;;;;0.00;0.00;;;;;23.94;51.99;101617.47;6088468;23;45317;-82
2021/08/11 10:37:06;;;;;;;;;0.00;0.00;;;;;24.09;51.97;101633.81;6088205;23;45601;-79
2021/08/11 10:39:32;;;;;;;;;0.00;0.00;;;;;24.22;51.54;101634.31;6087857;23;45355;-76
2021/08/11 10:42:07;;;;;;;;;0.00;0.00;;;;;24.32;51.66;101624.22;6084871;23;45373;-78
2021/08/11 10:44:32;;;;;;;;;0.00;0.00;;;;;24.42;51.48;101633.59;6088755;23;45338;-75
2021/08/11 10:47:03;;;;;;;;;0.00;0.00;;;;;24.29;50.84;101625.19;6087733;23;46131;-75
2021/08/11 10:49:29;;;;;;;;;0.00;0.00;;;;;24.17;51.12;101637.13;6087942;23;45362;-76
2021/08/11 10:52:14;;;;;;;;;0.25;0.25;;;;;23.70;51.13;101582.81;6085994;23;45384;-80
2021/08/11 10:54:57;;;;;;;;;0.00;0.00;;;;;23.96;50.49;101628.06;6088644;23;45304;-78
2021/08/11 10:57:34;;;;;;;;;0.00;0.00;;;;;24.16;50.76;101627.41;6085671;23;47222;-82
2021/08/11 11:00:13;;;;;;;;;0.00;0.00;;;;;24.25;50.71;101628.88;6087823;23;45461;-82
2021/08/11 11:02:39;;;;;;;;;0.00;0.00;;;;;24.13;50.29;101616.91;6086000;23;45362;-82
2021/08/11 11:05:06;;;;;;;;;0.00;0.00;;;;;24.13;50.19;101619.56;6086176;23;45412;-81
2021/08/11 11:07:32;;;;;;;;;3.25;0.00;;;;;24.08;50.27;101603.72;6088216;23;45342;-80
2021/08/11 11:10:35;;;;;;;;;0.50;0.50;;;;;24.16;50.53;101619.41;6088123;23;45255;-81
2021/08/11 11:13:01;;;;;;;;;0.00;0.00;;;;;23.99;50.84;101604.91;6085871;23;45291;-81
2021/08/11 11:15:41;;;;;;;;;0.00;0.00;;;;;23.98;50.35;101618.25;6087955;23;45285;-81
2021/08/11 11:18:21;;;;;;;;;0.00;0.00;;;;;23.86;50.58;101606.25;6087777;23;46665;-81
2021/08/11 11:20:56;;;;;;;;;0.00;0.00;;;;;23.93;50.67;101602.47;6087394;23;45450;-82
2021/08/11 11:23:40;;;;;;;;;0.00;0.00;;;;;24.13;50.73;101601.78;6088076;23;45345;-80
2021/08/11 11:26:16;;;;;;;;;0.00;0.00;;;;;24.32;50.14;101601.16;6088549;23;45412;-80